FR-0304 weather

St Roch Mayeres Airport
St Roch, Rhône Alpes, France

Public forecast

Using degrees Celsius for public forecast. Weather courtesy of forecast.io.

METAR (pilot weather report)

Closest report is Annecy-Haute-Savoie-Mont Blanc Airport, 20.1 nm (37.2 km) W. Retrieved 2019/09/21 19:30 UTC (0 seconds ago):

LFLP 211930Z AUTO 06004KT CAVOK 19/14 Q1015

TAF (pilot weather forecast)

Closest forecast is Annecy-Haute-Savoie-Mont Blanc Airport, 20.1 nm (37.2 km) W. Retrieved 2019/09/21 15:00 UTC (4 hours ago):

TAF LFLP 211400Z 2115/2215 VRB02KT CAVOK